< < Back
Terminal Aerodrome Forecast


Current Version              Previous Versions:   1  2  3  4  5  6  7  8  9  

Terminal Aerodrome Forecast

294
FTUS42 KGSP 232055 AAA
TAFHKY
TAF AMD
KHKY 232055Z 2321/2418 01003KT 1 1/2SM RA BR OVC002 WS020/12030KT
     FM240000 13009KT 2SM SHRA BR OVC002
     FM240500 22009KT 2SM SHRA BR OVC003
     FM240600 23010KT 5SM -RA BR OVC007 WS020/21035KT
     FM241400 23015G23KT P6SM BKN250=



Latest METAR

598
SAUS70 KWBC 232300 RRW
MTRHKY
METAR KHKY 232353Z 33005KT 3SM -RA BR OVC003 08/08 A2982 RMK AO2 SLP090
P0025 60110 T00830078 10089 20067 56035


USA.gov is the U.S. government's official web portal to all federal, state and local government web resources and services.